Time;durP1;ratioP1;P1;durP2;ratioP2;P2;SDS_P1;SDS_P2;PMS_P1;PMS_P2;Temp;Humidity;BMP_temperature;BMP_pressure;BME280_temperature;BME280_humidity;BME280_pressure;Samples;Min_cycle;Max_cycle;Signal;HPM_P1;HPM_P2
2023/01/30 00:00:30;;;;;;;25.77;12.37;;;-2.70;99.90;;;;;;5060929;28;20184;-56
2023/01/30 00:02:56;;;;;;;23.00;11.10;;;-2.80;99.90;;;;;;5066059;28;20554;-57
2023/01/30 00:05:21;;;;;;;22.27;11.07;;;-2.90;99.90;;;;;;5066723;28;20441;-57
2023/01/30 00:07:47;;;;;;;22.40;11.53;;;-2.90;99.90;;;;;;5077380;28;20181;-58
2023/01/30 00:10:13;;;;;;;25.80;12.10;;;-3.00;99.90;;;;;;5073004;28;20186;-57
2023/01/30 00:12:39;;;;;;;23.03;11.97;;;-3.00;99.90;;;;;;5067089;28;20201;-56
2023/01/30 00:15:05;;;;;;;23.30;11.77;;;-3.00;99.90;;;;;;5049526;28;21019;-56
2023/01/30 00:17:31;;;;;;;25.00;12.87;;;-3.00;99.90;;;;;;5049071;28;20456;-57
2023/01/30 00:19:57;;;;;;;24.50;12.30;;;-3.00;99.90;;;;;;5048852;28;20455;-55
2023/01/30 00:22:22;;;;;;;21.70;11.77;;;-3.00;99.90;;;;;;5041929;28;20216;-56
2023/01/30 00:24:48;;;;;;;21.37;10.77;;;-3.10;99.90;;;;;;5069341;28;20180;-59
2023/01/30 00:27:14;;;;;;;20.90;11.43;;;-3.10;99.90;;;;;;5053629;28;20584;-58
2023/01/30 00:29:39;;;;;;;23.63;11.13;;;-3.10;99.90;;;;;;5072506;28;20191;-59
2023/01/30 00:32:05;;;;;;;32.23;13.57;;;-3.10;99.90;;;;;;5068535;28;20210;-57
2023/01/30 00:34:30;;;;;;;22.33;11.87;;;-3.10;99.90;;;;;;5070665;28;20185;-58
2023/01/30 00:36:56;;;;;;;28.30;13.17;;;-3.10;99.90;;;;;;5068016;28;20224;-57
2023/01/30 00:39:22;;;;;;;26.23;12.40;;;-3.20;99.90;;;;;;5070867;28;20210;-57
2023/01/30 00:47:15;;;;;;;21.43;10.70;;;-3.30;99.90;;;;;;5068727;28;20435;-58
2023/01/30 00:49:41;;;;;;;27.47;11.80;;;-3.40;99.90;;;;;;5061856;28;20701;-58
2023/01/30 00:52:07;;;;;;;25.37;11.80;;;-3.50;99.90;;;;;;5053540;28;20261;-57
2023/01/30 00:54:33;;;;;;;23.90;11.47;;;-3.50;99.90;;;;;;5039442;28;20560;-56
2023/01/30 00:56:58;;;;;;;24.57;12.37;;;-3.50;99.90;;;;;;5047230;28;20175;-56
2023/01/30 00:59:25;;;;;;;26.40;12.47;;;-3.60;99.90;;;;;;5043891;28;21080;-56
2023/01/30 01:01:50;;;;;;;20.70;10.20;;;-3.60;99.90;;;;;;5044315;28;20234;-55
2023/01/30 01:04:16;;;;;;;29.10;11.20;;;-3.60;99.90;;;;;;5040198;28;20534;-56
2023/01/30 01:06:41;;;;;;;25.97;12.13;;;-3.60;99.90;;;;;;5050279;28;20214;-56
2023/01/30 01:09:07;;;;;;;20.77;10.80;;;-3.60;99.90;;;;;;5049509;28;20663;-55
2023/01/30 01:11:33;;;;;;;21.70;11.17;;;-3.70;99.90;;;;;;5045875;28;20256;-57
2023/01/30 01:14:02;;;;;;;23.60;10.83;;;-3.70;99.90;;;;;;5048160;28;20721;-56
2023/01/30 01:16:29;;;;;;;25.73;11.73;;;-3.70;99.90;;;;;;5048712;28;20557;-58
2023/01/30 01:18:55;;;;;;;23.23;11.07;;;-3.80;99.90;;;;;;5037502;28;20955;-57
2023/01/30 01:21:21;;;;;;;25.50;11.50;;;-3.80;99.90;;;;;;5047716;28;20452;-56
2023/01/30 01:23:51;;;;;;;24.87;11.10;;;-3.80;99.90;;;;;;5040111;28;20218;-57
2023/01/30 01:26:17;;;;;;;26.87;11.97;;;-3.80;99.90;;;;;;5039106;28;20760;-58
2023/01/30 01:28:42;;;;;;;25.87;10.73;;;-3.90;99.90;;;;;;5043829;28;20432;-56
2023/01/30 01:31:10;;;;;;;24.27;11.63;;;-3.90;99.90;;;;;;5065401;28;20462;-58
2023/01/30 01:33:36;;;;;;;23.80;11.70;;;-3.90;99.90;;;;;;5062204;28;20183;-56
2023/01/30 01:36:02;;;;;;;26.60;11.83;;;-3.90;99.90;;;;;;5049058;28;20429;-57
2023/01/30 01:38:27;;;;;;;26.93;13.07;;;-3.80;99.90;;;;;;5050830;28;20261;-56
2023/01/30 01:41:04;;;;;;;23.53;12.17;;;-3.80;99.90;;;;;;5031867;28;20208;-56
2023/01/30 01:43:34;;;;;;;24.37;11.90;;;-3.70;99.90;;;;;;5041520;28;20234;-56
2023/01/30 01:46:12;;;;;;;26.80;11.57;;;-3.70;99.90;;;;;;5040669;28;20426;-55
2023/01/30 01:48:45;;;;;;;24.40;12.10;;;-3.70;99.90;;;;;;5030749;28;20431;-55
2023/01/30 01:51:13;;;;;;;21.17;11.00;;;-3.70;99.90;;;;;;5046473;28;20441;-57
2023/01/30 01:53:46;;;;;;;23.47;12.17;;;-3.80;99.90;;;;;;5041902;28;20425;-56
2023/01/30 01:56:15;;;;;;;24.00;11.93;;;-3.80;99.90;;;;;;5043471;28;20799;-57
2023/01/30 01:58:50;;;;;;;28.23;12.07;;;-3.80;99.90;;;;;;5045250;28;20584;-55
2023/01/30 02:01:15;;;;;;;25.07;11.70;;;-3.90;99.90;;;;;;5034286;28;20454;-57
2023/01/30 02:03:46;;;;;;;23.93;11.80;;;-3.80;99.90;;;;;;5044158;28;20440;-57
2023/01/30 02:06:14;;;;;;;22.10;10.90;;;-3.80;99.90;;;;;;5046378;28;20181;-57
2023/01/30 02:08:49;;;;;;;21.53;10.90;;;-3.90;99.90;;;;;;5040556;28;20438;-57
2023/01/30 02:11:29;;;;;;;29.03;10.67;;;-3.90;99.90;;;;;;5038851;28;20578;-56
2023/01/30 02:13:59;;;;;;;21.43;11.33;;;-4.00;99.90;;;;;;5023494;28;20857;-57
2023/01/30 02:16:24;;;;;;;26.70;11.37;;;-4.00;99.90;;;;;;5045111;28;20512;-57
2023/01/30 02:18:50;;;;;;;22.93;11.00;;;-4.00;99.90;;;;;;5028383;28;20463;-56
2023/01/30 02:21:26;;;;;;;24.50;11.30;;;-4.10;99.90;;;;;;5030965;28;20228;-57
2023/01/30 02:24:07;;;;;;;24.80;11.80;;;-4.10;99.90;;;;;;5046226;28;20471;-56
2023/01/30 02:26:35;;;;;;;26.33;11.87;;;-4.10;99.90;;;;;;5046239;28;20938;-56
2023/01/30 02:29:29;;;;;;;27.27;12.40;;;-4.20;99.90;;;;;;5063053;28;20469;-57
2023/01/30 02:32:03;;;;;;;28.10;12.77;;;-4.20;99.90;;;;;;5061820;28;20458;-56
2023/01/30 02:34:39;;;;;;;27.60;12.10;;;-4.30;99.90;;;;;;5042666;28;20440;-56
2023/01/30 02:37:22;;;;;;;22.43;11.47;;;-4.30;99.90;;;;;;5023300;28;20516;-56
2023/01/30 02:40:15;;;;;;;22.70;11.83;;;-4.30;99.90;;;;;;5046074;28;20557;-56
2023/01/30 02:43:29;;;;;;;26.03;12.57;;;-4.20;99.90;;;;;;5049323;28;20452;-58
2023/01/30 02:46:10;;;;;;;23.53;11.00;;;-4.20;99.90;;;;;;5034856;28;20906;-58
2023/01/30 02:49:04;;;;;;;24.70;11.33;;;-4.10;99.90;;;;;;5063940;28;20436;-59
2023/01/30 02:51:33;;;;;;;29.93;11.73;;;-4.10;99.90;;;;;;5032292;28;20455;-56
2023/01/30 02:54:00;;;;;;;25.90;12.20;;;-4.00;99.90;;;;;;5040921;28;20919;-58
2023/01/30 02:56:26;;;;;;;25.57;11.57;;;-4.00;99.90;;;;;;5035246;28;20443;-57
2023/01/30 02:58:57;;;;;;;20.10;11.37;;;-4.00;99.90;;;;;;5039579;28;22579;-58
2023/01/30 03:02:02;;;;;;;24.80;11.90;;;-4.00;99.90;;;;;;5060316;28;20457;-57
2023/01/30 03:04:39;;;;;;;21.83;11.10;;;-4.10;99.90;;;;;;5019021;28;20458;-56
2023/01/30 03:07:20;;;;;;;23.23;11.30;;;-4.10;99.90;;;;;;5056629;28;20488;-58
2023/01/30 03:10:22;;;;;;;21.00;10.77;;;-4.10;99.90;;;;;;5064857;28;20520;-58
2023/01/30 03:13:06;;;;;;;21.50;10.87;;;-4.10;99.90;;;;;;5049531;28;20463;-56
2023/01/30 03:15:55;;;;;;;25.57;12.33;;;-4.10;99.90;;;;;;5046567;28;20435;-56
2023/01/30 03:18:21;;;;;;;31.80;11.83;;;-4.10;99.90;;;;;;5050078;28;20447;-57
2023/01/30 03:20:47;;;;;;;23.13;11.83;;;-4.10;99.90;;;;;;5068168;28;20426;-59
2023/01/30 03:23:13;;;;;;;23.40;11.53;;;-4.10;99.90;;;;;;5050759;28;20476;-58
2023/01/30 03:25:42;;;;;;;20.07;11.10;;;-4.00;99.90;;;;;;5050728;28;20597;-57
2023/01/30 03:28:09;;;;;;;26.83;12.40;;;-4.00;99.90;;;;;;5044985;28;20221;-55
2023/01/30 03:30:35;;;;;;;22.47;11.23;;;-4.00;99.90;;;;;;5028988;28;20757;-57
2023/01/30 03:33:01;;;;;;;25.83;11.27;;;-3.90;99.90;;;;;;5033442;28;20529;-57
2023/01/30 03:35:28;;;;;;;28.63;12.37;;;-3.90;99.90;;;;;;5031000;28;20199;-55
2023/01/30 03:37:53;;;;;;;25.47;12.10;;;-3.90;99.90;;;;;;5041849;28;20177;-58
2023/01/30 03:40:19;;;;;;;31.80;12.90;;;-3.90;99.90;;;;;;5033416;28;20460;-57
2023/01/30 03:42:45;;;;;;;24.40;11.97;;;-3.90;99.90;;;;;;5044290;28;20192;-57
2023/01/30 03:45:11;;;;;;;22.70;10.57;;;-3.90;99.90;;;;;;5059063;28;20190;-58
2023/01/30 03:47:36;;;;;;;21.83;11.53;;;-3.90;99.90;;;;;;5069472;28;20213;-58
2023/01/30 03:50:02;;;;;;;21.00;11.03;;;-3.90;99.90;;;;;;5053876;28;20430;-58
2023/01/30 03:52:28;;;;;;;23.00;11.73;;;-4.00;99.90;;;;;;5067743;28;21706;-56
2023/01/30 03:54:53;;;;;;;23.60;12.17;;;-3.90;99.90;;;;;;5043500;28;20231;-56
2023/01/30 03:57:19;;;;;;;22.37;11.53;;;-3.90;99.90;;;;;;5046013;28;20656;-59
2023/01/30 03:59:45;;;;;;;24.30;12.03;;;-3.90;99.90;;;;;;5046075;28;20204;-55
2023/01/30 04:02:10;;;;;;;25.90;11.80;;;-4.00;99.90;;;;;;5042037;28;20542;-58
2023/01/30 04:04:36;;;;;;;25.40;11.27;;;-4.00;99.90;;;;;;5047839;28;20188;-56
2023/01/30 04:07:02;;;;;;;24.30;12.03;;;-4.00;99.90;;;;;;5047673;28;20637;-55
2023/01/30 04:09:27;;;;;;;25.73;12.57;;;-4.00;99.90;;;;;;5046081;28;20195;-57
2023/01/30 04:11:53;;;;;;;25.00;12.33;;;-4.00;99.90;;;;;;5042133;28;20687;-58
2023/01/30 04:14:19;;;;;;;28.63;11.43;;;-3.90;99.90;;;;;;5049377;28;20708;-56
2023/01/30 04:16:45;;;;;;;24.70;11.73;;;-3.90;99.90;;;;;;5041788;28;20219;-57
2023/01/30 04:19:10;;;;;;;26.53;12.23;;;-3.90;99.90;;;;;;5047727;28;20280;-57
2023/01/30 04:21:36;;;;;;;25.23;12.17;;;-4.00;99.90;;;;;;5047625;28;20768;-56
2023/01/30 04:24:02;;;;;;;30.00;12.40;;;-4.00;99.90;;;;;;5049204;28;20676;-57
2023/01/30 04:26:27;;;;;;;26.73;12.10;;;-4.00;99.90;;;;;;5050141;28;20289;-56
2023/01/30 04:28:53;;;;;;;25.13;11.80;;;-4.00;99.90;;;;;;5045143;28;20268;-57
2023/01/30 04:31:18;;;;;;;27.00;12.70;;;-4.00;99.90;;;;;;5044542;28;20277;-56
2023/01/30 04:33:44;;;;;;;24.80;11.97;;;-4.00;99.90;;;;;;5047131;28;20180;-57
2023/01/30 04:36:10;;;;;;;28.63;13.47;;;-4.10;99.90;;;;;;5046832;28;20185;-57
2023/01/30 04:38:36;;;;;;;31.70;12.50;;;-4.10;99.90;;;;;;5048755;28;20229;-55
2023/01/30 04:41:03;;;;;;;26.60;12.70;;;-4.10;99.90;;;;;;5044151;28;20468;-58
2023/01/30 04:43:29;;;;;;;27.47;12.63;;;-4.10;99.90;;;;;;5048529;28;21445;-55
2023/01/30 04:45:55;;;;;;;26.03;12.33;;;-4.00;99.90;;;;;;5044051;28;20431;-57
2023/01/30 04:48:22;;;;;;;26.67;12.50;;;-4.00;99.90;;;;;;5045707;28;20443;-57
2023/01/30 04:50:50;;;;;;;30.17;12.90;;;-4.00;99.90;;;;;;5041249;28;20940;-56
2023/01/30 04:53:17;;;;;;;29.63;11.80;;;-4.00;99.90;;;;;;5045023;28;20481;-56
2023/01/30 04:55:43;;;;;;;25.30;11.83;;;-4.00;99.90;;;;;;5032074;28;21343;-58
2023/01/30 04:58:08;;;;;;;25.23;12.03;;;-4.00;99.90;;;;;;5053221;28;20494;-57
2023/01/30 05:00:34;;;;;;;29.17;12.57;;;-4.00;99.90;;;;;;5061292;28;20835;-57
2023/01/30 05:03:00;;;;;;;26.43;12.33;;;-4.00;99.90;;;;;;5059841;28;20301;-59
2023/01/30 05:05:26;;;;;;;24.50;13.30;;;-4.00;99.90;;;;;;5063833;28;20683;-56
2023/01/30 05:07:52;;;;;;;25.53;13.07;;;-4.00;99.90;;;;;;5041946;28;20271;-56
2023/01/30 05:10:18;;;;;;;28.20;12.83;;;-4.00;99.90;;;;;;5046483;28;20535;-55
2023/01/30 05:12:44;;;;;;;27.10;13.70;;;-4.00;99.90;;;;;;5042979;28;21007;-54
2023/01/30 05:15:11;;;;;;;25.33;11.63;;;-4.00;99.90;;;;;;5031861;28;20184;-55
2023/01/30 05:17:36;;;;;;;28.27;13.03;;;-4.00;99.90;;;;;;5046147;28;20263;-55
2023/01/30 05:20:03;;;;;;;23.53;11.90;;;-4.00;99.90;;;;;;5047494;28;20539;-55
2023/01/30 05:22:29;;;;;;;24.93;12.47;;;-4.00;99.90;;;;;;5042614;28;20232;-56
2023/01/30 05:24:54;;;;;;;23.67;11.60;;;-4.00;99.90;;;;;;5065726;28;20424;-57
2023/01/30 05:27:20;;;;;;;23.07;11.77;;;-4.00;99.90;;;;;;5065752;28;20203;-59
2023/01/30 05:29:46;;;;;;;28.87;13.33;;;-4.00;99.90;;;;;;5043809;28;20181;-55
2023/01/30 05:32:16;;;;;;;26.07;12.37;;;-4.00;99.90;;;;;;5024866;28;20909;-56
2023/01/30 05:34:41;;;;;;;28.53;13.30;;;-4.00;99.90;;;;;;5044126;28;20183;-54
2023/01/30 05:37:07;;;;;;;24.87;12.00;;;-4.00;99.90;;;;;;5036162;28;20433;-62
2023/01/30 05:39:33;;;;;;;29.60;13.70;;;-4.00;99.90;;;;;;5036369;28;20595;-56
2023/01/30 05:41:59;;;;;;;29.20;12.93;;;-4.00;99.90;;;;;;5043511;28;20490;-54
2023/01/30 05:44:24;;;;;;;25.17;11.60;;;-4.00;99.90;;;;;;5053134;28;20245;-58
2023/01/30 05:46:50;;;;;;;24.73;12.53;;;-3.90;99.90;;;;;;5054399;28;20868;-57
2023/01/30 05:49:15;;;;;;;27.20;11.77;;;-3.90;99.90;;;;;;5063985;28;20191;-56
2023/01/30 05:51:41;;;;;;;24.00;12.20;;;-3.90;99.90;;;;;;5070810;28;20201;-58
2023/01/30 05:54:07;;;;;;;23.10;12.50;;;-3.90;99.90;;;;;;5070493;28;20200;-60
2023/01/30 05:56:33;;;;;;;28.27;13.80;;;-3.90;99.90;;;;;;5057035;28;20227;-58
2023/01/30 05:59:00;;;;;;;26.33;12.53;;;-3.80;99.90;;;;;;5055623;28;20777;-56
2023/01/30 06:01:27;;;;;;;23.73;11.93;;;-3.90;99.90;;;;;;5041589;28;20392;-54
2023/01/30 06:03:53;;;;;;;23.00;12.23;;;-3.90;99.90;;;;;;5044944;28;20556;-56
2023/01/30 06:06:19;;;;;;;25.30;12.70;;;-3.90;99.90;;;;;;5047485;28;20434;-55
2023/01/30 06:08:45;;;;;;;24.77;11.97;;;-3.90;99.90;;;;;;5051901;28;20944;-56
2023/01/30 06:11:13;;;;;;;27.50;13.50;;;-3.90;99.90;;;;;;5044322;28;20437;-57
2023/01/30 06:13:40;;;;;;;28.40;14.17;;;-3.90;99.90;;;;;;5042600;28;20563;-57
2023/01/30 06:16:07;;;;;;;28.43;13.43;;;-3.90;99.90;;;;;;5044203;28;20447;-55
2023/01/30 06:18:32;;;;;;;27.57;13.93;;;-3.90;99.90;;;;;;5039270;28;20436;-56
2023/01/30 06:20:58;;;;;;;33.40;15.67;;;-3.90;99.90;;;;;;5038529;28;20517;-56
2023/01/30 06:23:24;;;;;;;33.73;15.80;;;-4.00;99.90;;;;;;5040682;28;20180;-56
2023/01/30 06:25:51;;;;;;;29.60;14.70;;;-4.00;99.90;;;;;;5038322;28;20180;-56
2023/01/30 06:28:17;;;;;;;39.00;16.80;;;-4.00;99.90;;;;;;5035071;28;20311;-56
2023/01/30 06:30:43;;;;;;;35.93;13.30;;;-3.90;99.90;;;;;;5038391;28;20423;-55
2023/01/30 06:33:09;;;;;;;30.20;13.47;;;-3.90;99.90;;;;;;5034176;28;21007;-55
2023/01/30 06:35:39;;;;;;;27.77;12.50;;;-3.90;99.90;;;;;;5031150;28;20182;-57
2023/01/30 06:38:05;;;;;;;23.67;12.23;;;-3.90;99.90;;;;;;5035744;28;20433;-57
2023/01/30 06:40:31;;;;;;;24.70;12.23;;;-3.90;99.90;;;;;;5015063;28;20492;-57
2023/01/30 06:42:57;;;;;;;24.67;12.30;;;-3.90;99.90;;;;;;5049733;28;20451;-57
2023/01/30 06:45:22;;;;;;;24.17;12.47;;;-3.90;99.90;;;;;;5030041;28;20576;-57
2023/01/30 06:47:50;;;;;;;23.00;12.67;;;-3.90;99.90;;;;;;5042149;28;20184;-59
2023/01/30 06:50:17;;;;;;;30.33;14.00;;;-3.90;99.90;;;;;;5043444;28;20664;-58
2023/01/30 06:52:46;;;;;;;23.57;12.27;;;-3.90;99.90;;;;;;5025633;28;20455;-57
2023/01/30 06:55:14;;;;;;;27.80;13.27;;;-3.90;99.90;;;;;;5041569;28;20441;-56
2023/01/30 06:57:41;;;;;;;21.70;11.30;;;-3.90;99.90;;;;;;5038840;28;20511;-57
2023/01/30 07:00:10;;;;;;;25.47;12.67;;;-3.90;99.90;;;;;;5008220;28;20569;-59
2023/01/30 07:02:36;;;;;;;30.87;13.30;;;-3.90;99.90;;;;;;5009589;28;20455;-58
2023/01/30 07:05:03;;;;;;;25.83;12.33;;;-3.90;99.90;;;;;;5053393;28;20427;-59
2023/01/30 07:07:29;;;;;;;27.03;13.53;;;-3.80;99.90;;;;;;5068807;28;20258;-58
2023/01/30 07:09:55;;;;;;;25.67;12.67;;;-3.80;99.90;;;;;;5049046;28;20444;-59
2023/01/30 07:12:21;;;;;;;24.63;12.47;;;-3.80;99.90;;;;;;5058157;28;20446;-61
2023/01/30 07:14:47;;;;;;;26.50;12.90;;;-3.70;99.90;;;;;;5061699;28;20430;-57
2023/01/30 07:17:13;;;;;;;29.53;12.70;;;-3.70;99.90;;;;;;5057084;28;20434;-59
2023/01/30 07:19:39;;;;;;;25.40;12.60;;;-3.70;99.90;;;;;;5052844;28;20294;-56
2023/01/30 07:22:05;;;;;;;27.10;12.83;;;-3.70;99.90;;;;;;5052767;28;20998;-56
2023/01/30 07:24:30;;;;;;;22.73;11.57;;;-3.70;99.90;;;;;;5041143;28;20223;-57
2023/01/30 07:26:56;;;;;;;27.47;12.20;;;-3.70;99.90;;;;;;5043270;28;20711;-57
2023/01/30 07:29:21;;;;;;;21.23;11.13;;;-3.70;99.90;;;;;;5035215;28;20284;-57
2023/01/30 07:31:47;;;;;;;26.13;12.20;;;-3.70;99.90;;;;;;5046956;28;20658;-56
2023/01/30 07:34:12;;;;;;;21.73;10.90;;;-3.70;99.90;;;;;;5050165;28;20185;-57
2023/01/30 07:36:38;;;;;;;23.93;13.07;;;-3.70;99.90;;;;;;5059889;28;20238;-58
2023/01/30 07:39:04;;;;;;;18.93;10.30;;;-3.60;99.90;;;;;;5043628;28;20289;-56
2023/01/30 07:41:30;;;;;;;20.83;11.23;;;-3.60;99.90;;;;;;5046567;28;20258;-56
2023/01/30 07:43:55;;;;;;;25.03;11.10;;;-3.50;99.90;;;;;;5042059;28;20959;-55
2023/01/30 07:46:21;;;;;;;25.67;11.77;;;-3.50;99.90;;;;;;5046669;28;20641;-64
2023/01/30 07:48:47;;;;;;;24.90;10.87;;;-3.50;99.90;;;;;;5038084;28;20187;-57
2023/01/30 07:51:12;;;;;;;20.87;10.33;;;-3.50;99.90;;;;;;5045883;28;20183;-57
2023/01/30 07:53:38;;;;;;;26.53;11.20;;;-3.40;99.90;;;;;;5062655;28;20249;-57
2023/01/30 07:56:13;;;;;;;20.73;11.37;;;-3.30;99.90;;;;;;5063255;28;20257;-57
2023/01/30 07:58:39;;;;;;;21.47;11.23;;;-3.30;99.90;;;;;;5052110;28;20296;-56
2023/01/30 08:01:05;;;;;;;20.60;10.20;;;-3.20;99.90;;;;;;5025979;28;20484;-56
2023/01/30 08:03:30;;;;;;;21.10;11.00;;;-3.10;99.90;;;;;;5045996;28;21097;-56
2023/01/30 08:05:56;;;;;;;21.20;10.83;;;-3.00;99.90;;;;;;5030081;28;20437;-56
2023/01/30 08:08:22;;;;;;;23.83;11.13;;;-3.00;99.90;;;;;;5049437;28;20217;-56
2023/01/30 08:10:48;;;;;;;21.43;11.20;;;-2.90;99.90;;;;;;5046645;28;20177;-56
2023/01/30 08:13:13;;;;;;;24.07;11.70;;;-2.90;99.90;;;;;;5032078;28;20668;-57
2023/01/30 08:15:39;;;;;;;20.53;10.30;;;-2.90;99.90;;;;;;5050686;28;20438;-56
2023/01/30 08:18:06;;;;;;;18.10;10.57;;;-2.90;99.90;;;;;;5051169;28;20173;-56
2023/01/30 08:20:31;;;;;;;21.53;11.50;;;-2.80;99.90;;;;;;5047549;28;20204;-57
2023/01/30 08:22:58;;;;;;;22.10;10.40;;;-2.80;99.90;;;;;;5031021;28;20453;-56
2023/01/30 08:25:24;;;;;;;23.17;10.60;;;-2.70;99.90;;;;;;5045981;28;20172;-56
2023/01/30 08:27:50;;;;;;;20.60;10.50;;;-2.60;99.90;;;;;;5046461;28;20444;-57
2023/01/30 08:30:17;;;;;;;16.30;9.87;;;-2.40;99.90;;;;;;5051637;28;20174;-56
2023/01/30 08:32:43;;;;;;;17.40;9.77;;;-2.30;99.90;;;;;;5022147;28;20474;-56
2023/01/30 08:35:09;;;;;;;18.70;10.30;;;-2.20;99.90;;;;;;5051001;28;20415;-56
2023/01/30 08:37:35;;;;;;;18.97;9.80;;;-2.20;99.90;;;;;;5041117;28;20190;-57
2023/01/30 08:40:01;;;;;;;17.37;9.90;;;-2.20;99.90;;;;;;5048460;28;20492;-56
2023/01/30 08:42:26;;;;;;;19.43;10.53;;;-2.20;99.90;;;;;;5049258;28;20532;-56
2023/01/30 08:44:52;;;;;;;16.13;9.40;;;-2.20;99.90;;;;;;5056027;28;20199;-57
2023/01/30 08:47:17;;;;;;;18.13;8.93;;;-2.20;99.90;;;;;;5040180;28;20177;-57
2023/01/30 08:49:43;;;;;;;19.57;10.23;;;-2.10;99.90;;;;;;5048616;28;20187;-57
2023/01/30 08:52:09;;;;;;;17.77;9.47;;;-2.00;99.90;;;;;;5047086;28;21012;-56
2023/01/30 08:54:35;;;;;;;17.93;9.20;;;-2.00;99.90;;;;;;5051690;28;20179;-55
2023/01/30 08:57:00;;;;;;;20.77;9.70;;;-1.90;99.90;;;;;;5049244;28;20434;-57
2023/01/30 08:59:26;;;;;;;21.90;9.97;;;-1.80;99.90;;;;;;5059523;28;20211;-57
2023/01/30 09:01:51;;;;;;;17.53;9.00;;;-1.70;99.90;;;;;;5041453;28;20204;-58
2023/01/30 09:04:17;;;;;;;17.37;9.83;;;-1.60;99.90;;;;;;5065529;28;20196;-57
2023/01/30 09:06:43;;;;;;;17.70;10.07;;;-1.60;99.90;;;;;;5066851;28;20200;-57
2023/01/30 09:09:08;;;;;;;22.37;10.50;;;-1.50;99.90;;;;;;5027991;28;20189;-56
2023/01/30 09:11:34;;;;;;;17.97;9.40;;;-1.40;99.90;;;;;;5027783;28;20208;-57
2023/01/30 09:14:00;;;;;;;19.73;9.77;;;-1.40;99.90;;;;;;5046050;28;20677;-58
2023/01/30 09:16:25;;;;;;;18.00;8.97;;;-1.40;99.90;;;;;;5057994;28;20415;-58
2023/01/30 09:18:51;;;;;;;16.67;9.60;;;-1.40;99.90;;;;;;5069686;28;20303;-58
2023/01/30 09:21:17;;;;;;;14.63;9.00;;;-1.30;99.90;;;;;;5058144;28;20733;-59
2023/01/30 09:23:42;;;;;;;18.30;8.67;;;-1.20;99.90;;;;;;5037787;28;20923;-57
2023/01/30 09:26:08;;;;;;;17.27;8.90;;;-1.10;99.90;;;;;;5069831;28;20227;-58
2023/01/30 09:28:34;;;;;;;15.03;8.43;;;-1.00;99.90;;;;;;5045512;28;20176;-59
2023/01/30 09:31:00;;;;;;;16.97;9.17;;;-0.90;99.90;;;;;;5068667;28;20178;-58
2023/01/30 09:33:26;;;;;;;14.83;8.90;;;-0.80;99.90;;;;;;5053094;28;20431;-58
2023/01/30 09:35:53;;;;;;;16.93;8.90;;;-0.80;99.90;;;;;;5029271;28;20435;-57
2023/01/30 09:38:19;;;;;;;16.50;8.60;;;-0.70;99.90;;;;;;5048048;28;20435;-57
2023/01/30 09:41:06;;;;;;;15.53;8.17;;;-0.70;99.90;;;;;;5039590;28;20559;-56
2023/01/30 09:43:52;;;;;;;16.57;8.43;;;-0.70;99.90;;;;;;5014038;28;21681;-57
2023/01/30 09:46:44;;;;;;;15.67;8.27;;;-0.60;99.90;;;;;;5034484;28;20439;-57
2023/01/30 09:49:50;;;;;;;16.43;8.90;;;-0.50;99.90;;;;;;5042854;28;20519;-57
2023/01/30 09:52:33;;;;;;;17.10;8.13;;;-0.50;99.90;;;;;;5047053;28;20493;-58
2023/01/30 09:55:15;;;;;;;13.90;8.20;;;-0.40;99.90;;;;;;5064791;28;20451;-59
2023/01/30 09:57:42;;;;;;;13.63;7.87;;;-0.30;99.90;;;;;;5051353;28;20432;-57
2023/01/30 10:00:23;;;;;;;13.00;7.80;;;-0.20;99.90;;;;;;5040342;28;20460;-62
2023/01/30 10:03:04;;;;;;;17.20;8.40;;;-0.10;99.90;;;;;;5041408;28;20539;-57
2023/01/30 10:05:48;;;;;;;13.57;7.87;;;0.00;99.90;;;;;;5038048;28;20443;-57
2023/01/30 10:08:56;;;;;;;12.37;7.50;;;0.20;99.90;;;;;;5047225;28;20404;-58
2023/01/30 10:11:34;;;;;;;14.80;7.97;;;0.40;99.90;;;;;;5035928;28;20484;-56
2023/01/30 10:14:35;;;;;;;16.93;8.00;;;0.50;99.70;;;;;;5042867;28;20427;-56
2023/01/30 10:17:21;;;;;;;13.03;7.50;;;0.60;99.50;;;;;;5038430;28;20498;-57
2023/01/30 10:20:11;;;;;;;13.90;8.20;;;0.60;99.00;;;;;;5021802;28;20463;-55
2023/01/30 10:23:14;;;;;;;14.50;8.03;;;0.70;99.20;;;;;;5039388;28;20479;-57
2023/01/30 10:25:39;;;;;;;16.20;8.00;;;0.70;98.50;;;;;;5038258;28;21057;-57
2023/01/30 10:28:21;;;;;;;13.77;7.73;;;0.70;98.70;;;;;;5042779;28;20540;-57
2023/01/30 10:30:50;;;;;;;13.00;7.50;;;0.70;98.30;;;;;;5040852;28;20184;-57
2023/01/30 10:33:27;;;;;;;13.70;7.43;;;0.70;98.40;;;;;;5021366;28;20626;-57
2023/01/30 10:36:06;;;;;;;11.80;7.43;;;0.70;98.40;;;;;;5041373;28;20544;-56
2023/01/30 10:38:48;;;;;;;13.30;7.73;;;0.80;99.20;;;;;;5041279;28;20782;-56
2023/01/30 10:41:35;;;;;;;15.10;8.00;;;0.90;98.90;;;;;;5039710;28;20444;-58
2023/01/30 10:44:12;;;;;;;16.20;8.50;;;1.00;99.50;;;;;;5042543;28;20575;-57
2023/01/30 10:47:07;;;;;;;14.10;8.23;;;1.30;98.50;;;;;;5039727;28;20905;-57
2023/01/30 10:49:56;;;;;;;13.20;8.43;;;1.50;98.00;;;;;;5039715;28;20468;-57
2023/01/30 10:52:40;;;;;;;15.33;8.13;;;1.70;96.20;;;;;;5022052;28;20466;-57
2023/01/30 10:55:06;;;;;;;17.27;9.27;;;1.80;95.60;;;;;;5038839;28;20478;-58
2023/01/30 10:57:57;;;;;;;16.80;9.17;;;1.80;94.40;;;;;;5039694;28;20893;-57
2023/01/30 11:00:39;;;;;;;15.57;8.67;;;1.80;94.20;;;;;;5039106;28;20657;-56
2023/01/30 11:03:13;;;;;;;17.30;8.60;;;1.70;93.40;;;;;;5048558;28;20433;-61
2023/01/30 11:05:39;;;;;;;15.27;8.30;;;1.70;94.00;;;;;;5060307;28;20434;-59
2023/01/30 11:08:16;;;;;;;15.30;9.27;;;1.60;94.10;;;;;;5066128;28;20432;-58
2023/01/30 11:10:42;;;;;;;20.37;8.83;;;1.60;93.10;;;;;;5065369;28;20174;-58
2023/01/30 11:13:43;;;;;;;18.10;8.47;;;1.40;94.40;;;;;;5051452;28;20450;-57
2023/01/30 11:16:10;;;;;;;12.73;7.33;;;1.30;95.40;;;;;;4962559;28;20187;-57
2023/01/30 11:18:48;;;;;;;16.23;9.07;;;1.20;95.70;;;;;;5023696;28;20427;-57
2023/01/30 11:21:27;;;;;;;13.33;7.87;;;1.10;96.30;;;;;;5040077;28;20435;-57
2023/01/30 11:23:53;;;;;;;17.00;8.90;;;1.00;97.00;;;;;;5041716;28;20882;-57
2023/01/30 11:26:23;;;;;;;15.57;8.53;;;1.00;97.40;;;;;;5037482;28;20542;-58
2023/01/30 11:28:49;;;;;;;15.73;8.67;;;0.90;97.80;;;;;;5022943;28;20436;-56
2023/01/30 11:31:26;;;;;;;14.87;8.53;;;0.90;98.20;;;;;;5042341;28;20419;-57
2023/01/30 11:34:17;;;;;;;14.33;8.10;;;0.90;98.40;;;;;;5032657;28;20503;-57
2023/01/30 11:36:46;;;;;;;17.73;9.03;;;0.90;98.30;;;;;;5038172;28;20433;-57
2023/01/30 11:39:11;;;;;;;14.87;8.87;;;0.90;98.20;;;;;;5042559;28;20463;-56
2023/01/30 11:42:02;;;;;;;18.03;9.13;;;0.90;98.80;;;;;;5030793;28;20463;-57
2023/01/30 11:44:35;;;;;;;15.77;8.87;;;0.90;98.40;;;;;;5053941;28;20179;-58
2023/01/30 11:47:07;;;;;;;15.77;9.33;;;0.90;98.50;;;;;;5035061;28;20431;-58
2023/01/30 11:49:40;;;;;;;16.17;8.30;;;0.80;98.90;;;;;;5035633;28;20501;-58
2023/01/30 11:52:06;;;;;;;17.40;8.90;;;0.90;99.50;;;;;;5053287;28;21066;-60
2023/01/30 11:54:42;;;;;;;19.37;10.27;;;0.90;99.50;;;;;;5039787;28;20435;-57
2023/01/30 11:57:14;;;;;;;15.03;8.77;;;0.90;98.90;;;;;;5046064;28;20448;-57
2023/01/30 11:59:44;;;;;;;18.53;9.00;;;0.90;98.50;;;;;;5042805;28;20546;-57
2023/01/30 12:02:30;;;;;;;16.67;9.57;;;0.90;98.10;;;;;;5052490;28;20443;-57
2023/01/30 12:05:20;;;;;;;18.67;9.70;;;0.90;98.80;;;;;;5044302;28;20435;-56
2023/01/30 12:07:46;;;;;;;22.77;10.13;;;0.90;98.80;;;;;;5034394;28;22184;-58
2023/01/30 12:10:26;;;;;;;17.83;9.43;;;1.00;98.60;;;;;;5054681;28;20450;-59
2023/01/30 12:12:55;;;;;;;19.47;10.67;;;1.00;98.00;;;;;;5040919;28;20221;-57
2023/01/30 12:15:27;;;;;;;12.83;8.53;;;1.10;98.00;;;;;;5045876;28;20439;-57
2023/01/30 12:17:58;;;;;;;18.93;9.47;;;1.10;98.00;;;;;;5043259;28;20563;-57
2023/01/30 12:20:30;;;;;;;32.07;15.00;;;1.10;98.70;;;;;;5030420;28;21529;-57
2023/01/30 12:23:22;;;;;;;19.20;9.70;;;1.20;98.00;;;;;;5039606;28;20463;-58
2023/01/30 12:26:04;;;;;;;19.13;10.00;;;1.20;98.20;;;;;;5026015;28;20424;-62
2023/01/30 12:28:51;;;;;;;19.17;9.80;;;1.20;98.60;;;;;;5066870;28;20552;-58
2023/01/30 12:31:27;;;;;;;15.50;9.03;;;1.30;99.20;;;;;;5044890;28;20420;-56
2023/01/30 12:33:55;;;;;;;18.80;10.53;;;1.40;98.80;;;;;;5034240;28;20526;-56
2023/01/30 12:36:46;;;;;;;20.50;9.30;;;1.40;98.70;;;;;;5039769;28;20425;-56
2023/01/30 12:39:21;;;;;;;17.33;8.00;;;1.50;98.60;;;;;;5043833;28;21000;-56
2023/01/30 12:42:37;;;;;;;18.53;9.20;;;1.50;99.00;;;;;;5042556;28;20467;-56
2023/01/30 12:45:34;;;;;;;15.73;8.30;;;1.50;98.90;;;;;;4985682;28;20826;-57
2023/01/30 12:48:21;;;;;;;13.57;7.60;;;1.50;98.90;;;;;;5029449;28;21046;-56
2023/01/30 12:50:58;;;;;;;14.07;8.00;;;1.60;99.10;;;;;;5042219;28;20437;-56
2023/01/30 12:53:43;;;;;;;12.93;7.30;;;1.60;99.40;;;;;;5034200;28;21361;-56
2023/01/30 12:56:23;;;;;;;14.60;8.60;;;1.60;99.00;;;;;;5043400;28;20936;-57